Time;durP1;ratioP1;P1;durP2;ratioP2;P2;SDS_P1;SDS_P2;PMS_P1;PMS_P2;Temp;Humidity;BMP_temperature;BMP_pressure;BME280_temperature;BME280_humidity;BME280_pressure;Samples;Min_cycle;Max_cycle;Signal;HPM_P1;HPM_P2
2023/05/23 00:01:53;;;;;;;14.93;8.00;;;13.70;99.90;;;;;;4995292;28;20262;-72
2023/05/23 00:04:20;;;;;;;14.47;7.80;;;13.60;99.90;;;;;;5012574;28;20789;-70
2023/05/23 00:06:49;;;;;;;15.67;8.10;;;13.60;99.90;;;;;;4978897;28;20655;-71
2023/05/23 00:09:16;;;;;;;14.20;8.03;;;13.60;99.90;;;;;;5012567;28;20615;-72
2023/05/23 00:11:44;;;;;;;13.40;7.70;;;13.50;99.90;;;;;;5011753;28;20184;-70
2023/05/23 00:14:14;;;;;;;11.30;7.30;;;13.40;99.90;;;;;;4995267;28;20243;-70
2023/05/23 00:16:43;;;;;;;12.53;7.40;;;13.40;99.90;;;;;;4995071;28;20346;-69
2023/05/23 00:19:13;;;;;;;11.57;7.50;;;13.40;99.90;;;;;;5012844;28;20195;-71
2023/05/23 00:21:51;;;;;;;14.27;7.33;;;13.40;99.90;;;;;;4994605;28;20352;-70
2023/05/23 00:24:19;;;;;;;15.53;6.97;;;13.40;99.90;;;;;;4994818;28;20204;-71
2023/05/23 00:26:46;;;;;;;13.33;7.07;;;13.40;99.90;;;;;;4995191;28;20208;-74
2023/05/23 00:29:16;;;;;;;11.03;6.80;;;13.30;99.90;;;;;;5011534;28;20223;-73
2023/05/23 00:31:47;;;;;;;11.20;6.70;;;13.30;99.90;;;;;;4994683;28;20223;-75
2023/05/23 00:34:18;;;;;;;16.20;6.77;;;13.30;99.90;;;;;;4994560;28;20535;-72
2023/05/23 00:36:46;;;;;;;12.07;6.70;;;13.30;99.90;;;;;;5015301;28;20603;-73
2023/05/23 00:39:18;;;;;;;11.83;6.63;;;13.30;99.90;;;;;;4999166;28;20204;-72
2023/05/23 00:41:50;;;;;;;15.43;7.03;;;13.20;99.90;;;;;;5016153;28;20681;-73
2023/05/23 00:44:21;;;;;;;12.57;6.90;;;13.10;99.90;;;;;;4998672;28;20222;-70
2023/05/23 00:46:52;;;;;;;12.73;6.60;;;13.10;99.90;;;;;;4998753;28;20210;-72
2023/05/23 00:49:20;;;;;;;13.17;6.77;;;13.10;99.90;;;;;;4998398;28;20246;-71
2023/05/23 00:51:48;;;;;;;10.27;6.93;;;13.00;99.90;;;;;;4998375;28;20246;-73
2023/05/23 00:54:24;;;;;;;11.43;6.83;;;13.00;99.90;;;;;;5016121;28;20215;-71
2023/05/23 00:56:51;;;;;;;12.07;6.83;;;13.00;99.90;;;;;;5014603;28;20298;-71
2023/05/23 00:59:20;;;;;;;13.60;6.47;;;12.90;99.90;;;;;;5016126;28;20719;-71
2023/05/23 01:01:49;;;;;;;11.03;6.67;;;12.90;99.90;;;;;;5014733;28;20297;-71
2023/05/23 01:04:17;;;;;;;11.37;6.47;;;12.80;99.90;;;;;;5015536;28;20228;-71
2023/05/23 01:06:45;;;;;;;11.50;6.37;;;12.80;99.90;;;;;;5014554;28;20258;-70
2023/05/23 01:09:15;;;;;;;11.73;6.80;;;12.80;99.90;;;;;;4997869;28;20576;-71
2023/05/23 01:11:46;;;;;;;8.47;6.33;;;12.80;99.90;;;;;;5015793;28;20196;-71
2023/05/23 01:14:20;;;;;;;10.67;6.90;;;12.80;99.90;;;;;;4998555;28;20230;-71
2023/05/23 01:16:56;;;;;;;14.83;7.27;;;12.90;99.90;;;;;;5015849;28;20212;-72
2023/05/23 01:19:35;;;;;;;12.87;7.17;;;12.70;99.90;;;;;;5014439;28;20306;-72
2023/05/23 01:22:10;;;;;;;10.30;7.13;;;12.70;99.90;;;;;;5015154;28;20263;-71
2023/05/23 01:24:52;;;;;;;12.33;7.00;;;12.70;99.90;;;;;;5015991;28;20574;-70
2023/05/23 01:27:40;;;;;;;11.37;6.80;;;12.60;99.90;;;;;;5014171;28;20238;-70
2023/05/23 01:30:12;;;;;;;10.70;6.93;;;12.70;99.90;;;;;;5015310;28;20197;-71
2023/05/23 01:32:39;;;;;;;10.87;7.00;;;12.60;99.90;;;;;;4997763;28;20235;-71
2023/05/23 01:35:09;;;;;;;15.17;7.40;;;12.60;99.90;;;;;;4997513;28;20195;-71
2023/05/23 01:37:36;;;;;;;12.30;7.30;;;12.50;99.90;;;;;;5015237;28;20570;-72
2023/05/23 01:40:03;;;;;;;12.90;7.27;;;12.50;99.90;;;;;;4998081;28;20196;-72
2023/05/23 01:42:30;;;;;;;11.53;7.33;;;12.50;99.90;;;;;;4997817;28;20266;-72
2023/05/23 01:44:58;;;;;;;11.87;7.07;;;12.40;99.90;;;;;;5015141;28;20216;-72
2023/05/23 01:47:26;;;;;;;12.43;7.43;;;12.40;99.90;;;;;;4997456;28;20669;-72
2023/05/23 01:49:54;;;;;;;13.30;7.40;;;12.40;99.90;;;;;;5014803;28;20658;-73
2023/05/23 01:52:22;;;;;;;11.83;7.13;;;12.40;99.90;;;;;;5013959;28;20525;-72
2023/05/23 01:54:50;;;;;;;11.20;6.97;;;12.30;99.90;;;;;;5015495;28;20224;-72
2023/05/23 01:57:19;;;;;;;13.17;7.77;;;12.40;99.90;;;;;;4997604;28;20204;-73
2023/05/23 01:59:46;;;;;;;11.17;7.03;;;12.30;99.90;;;;;;4981151;28;20593;-72
2023/05/23 02:02:13;;;;;;;11.73;7.30;;;12.40;99.90;;;;;;4997901;28;20264;-72
2023/05/23 02:04:40;;;;;;;12.57;7.30;;;12.20;99.90;;;;;;4994494;28;20235;-71
2023/05/23 02:07:07;;;;;;;11.03;6.87;;;12.30;99.90;;;;;;5010284;28;20204;-72
2023/05/23 02:09:34;;;;;;;13.67;7.30;;;12.10;99.90;;;;;;4993731;28;20208;-71
2023/05/23 02:12:01;;;;;;;10.93;6.80;;;12.10;99.90;;;;;;4995317;28;20197;-72
2023/05/23 02:14:28;;;;;;;15.30;7.53;;;12.10;99.90;;;;;;4993885;28;20224;-72
2023/05/23 02:16:55;;;;;;;12.27;7.57;;;12.10;99.90;;;;;;5010188;28;20217;-73
2023/05/23 02:19:26;;;;;;;12.50;8.20;;;12.10;99.90;;;;;;4994835;28;20252;-72
2023/05/23 02:21:53;;;;;;;11.10;7.30;;;12.10;99.90;;;;;;4994002;28;20428;-72
2023/05/23 02:24:20;;;;;;;11.33;7.27;;;12.10;99.90;;;;;;5010494;28;20201;-73
2023/05/23 02:26:47;;;;;;;15.67;7.77;;;12.00;99.90;;;;;;4995193;28;20193;-71
2023/05/23 02:29:17;;;;;;;12.23;7.70;;;12.00;99.90;;;;;;4993890;28;20202;-71
2023/05/23 02:31:44;;;;;;;11.27;7.57;;;12.10;99.90;;;;;;5010824;28;20615;-70
2023/05/23 02:34:11;;;;;;;14.63;8.00;;;12.00;99.90;;;;;;4994107;28;20205;-72
2023/05/23 02:36:39;;;;;;;11.43;6.90;;;11.90;99.90;;;;;;4993572;28;20209;-73
2023/05/23 02:39:06;;;;;;;12.63;7.70;;;11.90;99.90;;;;;;4994757;28;20233;-73
2023/05/23 02:41:33;;;;;;;12.17;7.17;;;11.90;99.90;;;;;;5010329;28;20267;-73
2023/05/23 02:44:00;;;;;;;12.80;7.20;;;12.00;99.90;;;;;;4993390;28;20208;-72
2023/05/23 02:46:27;;;;;;;12.33;7.50;;;11.90;99.90;;;;;;4994542;28;20594;-73
2023/05/23 02:48:54;;;;;;;10.63;7.50;;;11.90;99.90;;;;;;5010106;28;20197;-73
2023/05/23 02:51:22;;;;;;;15.13;7.70;;;11.80;99.90;;;;;;5009764;28;20223;-74
2023/05/23 02:53:49;;;;;;;12.87;7.63;;;11.70;99.90;;;;;;4993617;28;20207;-72
2023/05/23 02:56:17;;;;;;;13.57;7.40;;;11.70;99.90;;;;;;4995369;28;20205;-74
2023/05/23 02:58:45;;;;;;;11.87;7.80;;;11.70;99.90;;;;;;5009458;28;20686;-72
2023/05/23 03:01:12;;;;;;;11.87;7.53;;;11.70;99.90;;;;;;4993447;28;20652;-73
2023/05/23 03:03:40;;;;;;;14.00;7.77;;;11.70;99.90;;;;;;4994862;28;20287;-72
2023/05/23 03:06:09;;;;;;;11.10;7.70;;;11.70;99.90;;;;;;5013641;28;20543;-71
2023/05/23 03:08:36;;;;;;;11.47;7.33;;;11.70;99.90;;;;;;4996181;28;20291;-72
2023/05/23 03:11:03;;;;;;;13.73;7.47;;;11.70;99.90;;;;;;5013433;28;20200;-72
2023/05/23 03:13:30;;;;;;;11.30;7.23;;;11.60;99.90;;;;;;4979682;28;20228;-72
2023/05/23 03:15:57;;;;;;;11.83;7.70;;;11.70;99.90;;;;;;5012318;28;20206;-72
2023/05/23 03:18:24;;;;;;;11.77;7.20;;;11.70;99.90;;;;;;4995976;28;20677;-73
2023/05/23 03:20:52;;;;;;;15.77;7.67;;;11.70;99.90;;;;;;4997631;28;20222;-72
2023/05/23 03:23:19;;;;;;;13.10;7.00;;;11.70;99.90;;;;;;4996114;28;20967;-71
2023/05/23 03:25:46;;;;;;;14.87;8.07;;;11.70;99.90;;;;;;5013231;28;20199;-73
2023/05/23 03:28:13;;;;;;;9.53;7.13;;;11.70;99.90;;;;;;5013599;28;20188;-73
2023/05/23 03:30:40;;;;;;;11.47;7.60;;;11.80;99.90;;;;;;5013169;28;20196;-72
2023/05/23 03:33:10;;;;;;;10.73;7.47;;;11.80;99.90;;;;;;4995730;28;20303;-73
2023/05/23 03:35:37;;;;;;;9.83;7.20;;;11.80;99.90;;;;;;5012180;28;20246;-72
2023/05/23 03:38:04;;;;;;;13.53;7.43;;;11.80;99.90;;;;;;4995567;28;20541;-72
2023/05/23 03:40:31;;;;;;;11.97;7.30;;;11.80;99.90;;;;;;4995267;28;20615;-72
2023/05/23 03:43:05;;;;;;;12.30;7.23;;;11.90;99.90;;;;;;5011664;28;20685;-70
2023/05/23 03:45:32;;;;;;;12.53;7.30;;;11.90;99.90;;;;;;5011868;28;20203;-71
2023/05/23 03:48:00;;;;;;;13.77;7.67;;;12.00;99.90;;;;;;5011958;28;20748;-72
2023/05/23 03:50:27;;;;;;;10.53;7.20;;;12.00;99.90;;;;;;4995428;28;20763;-73
2023/05/23 03:52:55;;;;;;;11.17;7.23;;;12.10;99.90;;;;;;4995301;28;20204;-72
2023/05/23 03:55:24;;;;;;;11.23;7.57;;;12.20;99.90;;;;;;4995631;28;20642;-71
2023/05/23 03:57:51;;;;;;;12.07;7.47;;;12.20;99.90;;;;;;4995209;28;20192;-71
2023/05/23 04:00:18;;;;;;;11.57;7.80;;;12.30;99.90;;;;;;5011637;28;20247;-73
2023/05/23 04:02:46;;;;;;;12.47;8.00;;;12.40;99.90;;;;;;4995338;28;20652;-72
2023/05/23 04:05:13;;;;;;;13.97;7.43;;;12.40;99.90;;;;;;4995019;28;20235;-72
2023/05/23 04:07:41;;;;;;;13.60;7.90;;;12.50;99.90;;;;;;4995959;28;20250;-74
2023/05/23 04:10:09;;;;;;;14.43;8.30;;;12.60;99.90;;;;;;4994500;28;20626;-72
2023/05/23 04:12:37;;;;;;;10.63;7.30;;;12.60;99.90;;;;;;4995612;28;20188;-71
2023/05/23 04:15:04;;;;;;;10.57;7.77;;;12.70;99.90;;;;;;4994982;28;20208;-73
2023/05/23 04:17:32;;;;;;;10.27;7.23;;;12.80;99.90;;;;;;5012513;28;20246;-72
2023/05/23 04:19:59;;;;;;;10.83;6.93;;;12.90;99.90;;;;;;5012609;28;20192;-75
2023/05/23 04:22:25;;;;;;;10.63;7.27;;;13.00;99.90;;;;;;5013219;28;20220;-73
2023/05/23 04:24:53;;;;;;;10.57;6.70;;;13.00;99.90;;;;;;5012840;28;20243;-72
2023/05/23 04:27:21;;;;;;;11.90;7.30;;;13.20;99.90;;;;;;4995503;28;20211;-74
2023/05/23 04:29:48;;;;;;;9.87;6.47;;;13.30;99.90;;;;;;5011427;28;20207;-71
2023/05/23 04:32:17;;;;;;;10.20;6.67;;;13.30;99.90;;;;;;4995026;28;20579;-73
2023/05/23 04:34:44;;;;;;;12.93;6.33;;;13.40;99.90;;;;;;5012694;28;20202;-74
2023/05/23 04:37:13;;;;;;;10.90;6.90;;;13.60;99.90;;;;;;5011207;28;20203;-73
2023/05/23 04:39:40;;;;;;;9.30;6.10;;;13.60;99.90;;;;;;4995376;28;20294;-73
2023/05/23 04:42:07;;;;;;;10.03;5.60;;;13.80;99.90;;;;;;5011823;28;20255;-75
2023/05/23 04:44:36;;;;;;;8.40;5.87;;;13.80;99.90;;;;;;5012753;28;20196;-74
2023/05/23 04:47:03;;;;;;;9.33;6.10;;;13.90;99.90;;;;;;4995231;28;20200;-74
2023/05/23 04:49:32;;;;;;;7.60;5.50;;;13.90;99.90;;;;;;4995004;28;20657;-74
2023/05/23 04:52:00;;;;;;;8.87;5.40;;;14.00;99.90;;;;;;4994634;28;20605;-73
2023/05/23 04:54:27;;;;;;;8.80;5.77;;;14.10;99.90;;;;;;5011304;28;20602;-74
2023/05/23 04:56:54;;;;;;;10.03;5.50;;;14.20;99.90;;;;;;5012264;28;20192;-73
2023/05/23 04:59:21;;;;;;;8.70;5.70;;;14.30;99.90;;;;;;4994573;28;20212;-74
2023/05/23 05:01:47;;;;;;;9.43;5.50;;;14.40;99.90;;;;;;5012140;28;20564;-75
2023/05/23 05:04:14;;;;;;;7.70;5.50;;;14.50;99.90;;;;;;5010793;28;20736;-75
2023/05/23 05:06:42;;;;;;;8.43;5.63;;;14.60;99.90;;;;;;5012058;28;20615;-74
2023/05/23 05:09:09;;;;;;;7.67;5.70;;;14.70;99.90;;;;;;4994637;28;20307;-75
2023/05/23 05:11:36;;;;;;;8.30;5.47;;;14.80;99.90;;;;;;5013856;28;20200;-75
2023/05/23 05:14:03;;;;;;;10.97;5.03;;;14.90;99.90;;;;;;5012251;28;20235;-75
2023/05/23 05:16:30;;;;;;;10.23;5.30;;;15.00;99.90;;;;;;5011483;28;20550;-75
2023/05/23 05:18:57;;;;;;;9.23;5.20;;;15.00;99.90;;;;;;5012198;28;20279;-75
2023/05/23 05:21:24;;;;;;;10.40;5.63;;;15.20;99.90;;;;;;5013390;28;20299;-75
2023/05/23 05:23:51;;;;;;;9.53;5.37;;;15.20;99.90;;;;;;4998542;28;20654;-75
2023/05/23 05:26:18;;;;;;;8.17;5.20;;;15.30;99.90;;;;;;4998385;28;20641;-75
2023/05/23 05:28:45;;;;;;;10.37;5.50;;;15.40;99.90;;;;;;5017099;28;20234;-75
2023/05/23 05:31:13;;;;;;;9.93;5.27;;;15.50;99.90;;;;;;4998004;28;20258;-74
2023/05/23 05:33:44;;;;;;;7.97;5.03;;;15.60;99.90;;;;;;5015456;28;20248;-75
2023/05/23 05:36:11;;;;;;;8.33;4.80;;;15.70;99.90;;;;;;4997777;28;20204;-75
2023/05/23 05:38:38;;;;;;;10.50;5.23;;;15.80;99.90;;;;;;4998145;28;20544;-75
2023/05/23 05:41:05;;;;;;;7.97;5.27;;;16.00;99.90;;;;;;5015516;28;20291;-74
2023/05/23 05:43:35;;;;;;;10.10;4.90;;;16.00;99.90;;;;;;5015762;28;20637;-75
2023/05/23 05:46:02;;;;;;;7.93;5.27;;;16.20;99.90;;;;;;4998181;28;20196;-75
2023/05/23 05:48:29;;;;;;;7.30;5.23;;;16.30;99.90;;;;;;5015203;28;20695;-76
2023/05/23 05:50:56;;;;;;;10.43;5.07;;;16.40;99.90;;;;;;5014884;28;20243;-75
2023/05/23 05:53:23;;;;;;;9.80;4.93;;;16.60;99.90;;;;;;4997869;28;20258;-75
2023/05/23 05:55:50;;;;;;;8.67;4.57;;;16.50;99.90;;;;;;4997881;28;20203;-75
2023/05/23 05:58:17;;;;;;;9.50;5.27;;;16.70;99.90;;;;;;4997627;28;20196;-75
2023/05/23 06:00:44;;;;;;;8.63;4.80;;;16.70;99.90;;;;;;4997951;28;20242;-75
2023/05/23 06:03:11;;;;;;;11.03;5.10;;;16.80;99.90;;;;;;4997516;28;20251;-75
2023/05/23 06:05:38;;;;;;;8.30;4.73;;;16.90;99.90;;;;;;4997372;28;20720;-73
2023/05/23 06:08:06;;;;;;;7.67;4.63;;;17.00;99.90;;;;;;5015074;28;20583;-74
2023/05/23 06:10:33;;;;;;;6.00;4.27;;;17.10;99.90;;;;;;4997519;28;20210;-73
2023/05/23 06:13:00;;;;;;;7.87;4.33;;;17.10;99.90;;;;;;5015011;28;20279;-75
2023/05/23 06:15:28;;;;;;;8.50;4.20;;;17.20;99.90;;;;;;5013679;28;20231;-78
2023/05/23 06:17:55;;;;;;;5.90;3.97;;;17.30;99.90;;;;;;5014927;28;20196;-81
2023/05/23 06:20:22;;;;;;;7.13;3.40;;;17.40;99.90;;;;;;4997338;28;20214;-74
2023/05/23 06:22:49;;;;;;;8.93;4.50;;;17.50;99.90;;;;;;5014579;28;20223;-75
2023/05/23 06:25:16;;;;;;;7.73;4.50;;;17.70;99.90;;;;;;5014531;28;20184;-77
2023/05/23 06:27:45;;;;;;;7.83;4.10;;;17.80;99.90;;;;;;5015088;28;20346;-75
2023/05/23 06:30:12;;;;;;;8.00;4.23;;;17.90;99.90;;;;;;4996927;28;20188;-75
2023/05/23 06:32:40;;;;;;;5.70;3.70;;;18.00;99.90;;;;;;4995571;28;20193;-76
2023/05/23 06:35:09;;;;;;;5.77;3.93;;;18.10;99.90;;;;;;5013225;28;20224;-76
2023/05/23 06:37:36;;;;;;;6.93;4.30;;;18.30;99.90;;;;;;5014843;28;20197;-76
2023/05/23 06:40:04;;;;;;;8.07;3.80;;;18.40;99.90;;;;;;4996523;28;20208;-75
2023/05/23 06:42:31;;;;;;;7.33;3.83;;;18.50;99.90;;;;;;4997019;28;20681;-75
2023/05/23 06:44:58;;;;;;;6.13;3.83;;;18.60;99.90;;;;;;4996656;28;20654;-76
2023/05/23 06:47:25;;;;;;;7.83;4.03;;;18.60;99.90;;;;;;5012790;28;20658;-75
2023/05/23 06:49:52;;;;;;;5.60;3.73;;;18.70;99.90;;;;;;4996761;28;20247;-75
2023/05/23 06:52:19;;;;;;;5.67;3.70;;;18.70;99.90;;;;;;4996640;28;20188;-75
2023/05/23 06:54:46;;;;;;;8.07;3.80;;;18.90;99.90;;;;;;5014283;28;20200;-75
2023/05/23 06:57:12;;;;;;;5.83;3.87;;;18.90;99.90;;;;;;4996547;28;20193;-75
2023/05/23 06:59:39;;;;;;;4.57;3.60;;;18.90;99.90;;;;;;4996935;28;20243;-78
2023/05/23 07:02:07;;;;;;;5.20;3.60;;;19.10;99.90;;;;;;5013843;28;20231;-74
2023/05/23 07:04:34;;;;;;;5.23;3.53;;;19.20;99.90;;;;;;5013658;28;20262;-75
2023/05/23 07:07:01;;;;;;;5.87;3.40;;;19.20;99.90;;;;;;5012466;28;20196;-74
2023/05/23 07:09:28;;;;;;;4.47;3.10;;;19.30;99.90;;;;;;4996129;28;20211;-76
2023/05/23 07:11:58;;;;;;;5.70;3.20;;;19.50;99.90;;;;;;4996611;28;20642;-76
2023/05/23 07:14:25;;;;;;;7.13;3.50;;;19.60;99.90;;;;;;5013968;28;20195;-74
2023/05/23 07:16:52;;;;;;;8.93;3.40;;;19.70;99.90;;;;;;4995833;28;20216;-73
2023/05/23 07:19:19;;;;;;;5.60;3.30;;;19.80;99.90;;;;;;4996080;28;20207;-75
2023/05/23 07:21:46;;;;;;;7.30;3.20;;;19.80;99.90;;;;;;5013491;28;20239;-75
2023/05/23 07:24:13;;;;;;;5.17;2.90;;;19.90;99.90;;;;;;4995937;28;20208;-77
2023/05/23 07:26:40;;;;;;;6.00;3.00;;;20.00;99.90;;;;;;5012168;28;20196;-76
2023/05/23 07:29:07;;;;;;;5.30;3.07;;;20.00;99.90;;;;;;5013785;28;20246;-77
2023/05/23 07:31:34;;;;;;;5.27;3.00;;;20.20;99.90;;;;;;4995702;28;20204;-76
2023/05/23 07:34:01;;;;;;;6.33;3.30;;;20.20;99.90;;;;;;4995679;28;20197;-73
2023/05/23 07:36:28;;;;;;;7.50;3.13;;;20.30;99.90;;;;;;5013449;28;20188;-75
2023/05/23 07:38:55;;;;;;;7.97;3.30;;;20.40;99.90;;;;;;5013511;28;20188;-77
2023/05/23 07:41:22;;;;;;;6.13;2.87;;;20.50;99.90;;;;;;5012736;28;20200;-75
2023/05/23 07:43:49;;;;;;;5.93;2.90;;;20.60;99.90;;;;;;5013157;28;20219;-74
2023/05/23 07:46:17;;;;;;;3.83;2.80;;;20.70;99.90;;;;;;5012117;28;20275;-78
2023/05/23 07:48:44;;;;;;;5.13;2.53;;;20.60;99.90;;;;;;4996189;28;20196;-76
2023/05/23 07:51:11;;;;;;;5.20;3.13;;;20.70;99.90;;;;;;5011944;28;20241;-76
2023/05/23 07:53:38;;;;;;;5.77;3.00;;;20.70;99.90;;;;;;5012056;28;20526;-75
2023/05/23 07:56:06;;;;;;;4.03;2.90;;;20.80;99.90;;;;;;5013328;28;20254;-79
2023/05/23 07:58:33;;;;;;;6.33;3.10;;;20.90;99.90;;;;;;4995522;28;20668;-74
2023/05/23 08:01:00;;;;;;;7.03;3.10;;;21.00;99.90;;;;;;4995191;28;20196;-78
2023/05/23 08:03:26;;;;;;;4.60;2.87;;;21.10;99.90;;;;;;4995380;28;20241;-74
2023/05/23 08:05:54;;;;;;;8.00;3.13;;;21.30;99.90;;;;;;5013311;28;20196;-77
2023/05/23 08:08:20;;;;;;;3.80;2.70;;;21.40;99.90;;;;;;5013586;28;20208;-80
2023/05/23 08:10:47;;;;;;;6.70;3.20;;;21.50;99.90;;;;;;4995034;28;20204;-74
2023/05/23 08:13:15;;;;;;;4.30;3.10;;;21.60;99.90;;;;;;4995221;28;20200;-75
2023/05/23 08:15:42;;;;;;;5.95;3.30;;;21.70;99.20;;;;;;4995028;28;20196;-76
2023/05/23 08:18:10;;;;;;;5.13;2.77;;;22.20;97.40;;;;;;5012898;28;20173;-77
2023/05/23 08:20:37;;;;;;;5.05;3.08;;;22.90;94.70;;;;;;4994833;28;20270;-73
2023/05/23 08:23:05;;;;;;;7.00;3.17;;;23.50;93.70;;;;;;4994851;28;20813;-72
2023/05/23 08:25:32;;;;;;;5.40;3.47;;;24.30;93.00;;;;;;4994913;28;20211;-72
2023/05/23 08:27:59;;;;;;;5.47;3.13;;;24.90;86.50;;;;;;4994695;28;20200;-74
2023/05/23 08:30:27;;;;;;;4.32;2.58;;;25.50;81.90;;;;;;5011630;28;20212;-76
2023/05/23 08:32:55;;;;;;;4.75;3.05;;;26.30;78.10;;;;;;5011052;28;20204;-75
2023/05/23 08:35:24;;;;;;;5.93;3.40;;;26.40;74.80;;;;;;5011254;28;20295;-80
2023/05/23 08:37:51;;;;;;;7.90;3.10;;;26.70;74.50;;;;;;4994778;28;20231;-74
2023/05/23 08:40:22;;;;;;;3.70;2.65;;;27.10;70.10;;;;;;4994754;28;20563;-78
2023/05/23 08:42:49;;;;;;;3.75;2.80;;;27.10;66.90;;;;;;5012467;28;20708;-75
2023/05/23 08:45:17;;;;;;;3.72;2.50;;;26.60;65.70;;;;;;4994819;28;20238;-76
2023/05/23 08:47:45;;;;;;;3.80;2.58;;;26.50;65.70;;;;;;5012389;28;20195;-75
2023/05/23 08:50:17;;;;;;;3.55;2.60;;;26.90;65.10;;;;;;4994601;28;20228;-72
2023/05/23 08:52:58;;;;;;;3.30;2.53;;;27.30;63.90;;;;;;5011215;28;20200;-74
2023/05/23 08:55:27;;;;;;;3.47;2.40;;;27.90;64.20;;;;;;5012390;28;20245;-76
2023/05/23 08:57:56;;;;;;;5.28;2.67;;;28.10;60.10;;;;;;4998692;28;20227;-72
2023/05/23 09:00:26;;;;;;;4.53;2.60;;;28.20;59.40;;;;;;4998559;28;20208;-73
2023/05/23 09:02:54;;;;;;;3.67;2.40;;;28.30;58.10;;;;;;4998571;28;20300;-78
2023/05/23 09:05:21;;;;;;;3.75;2.63;;;28.30;58.00;;;;;;4998362;28;20591;-77
2023/05/23 09:07:49;;;;;;;5.47;2.80;;;28.50;58.90;;;;;;4998275;28;20638;-74
2023/05/23 09:10:21;;;;;;;4.38;2.72;;;28.80;55.90;;;;;;4998369;28;20596;-72
2023/05/23 09:12:48;;;;;;;6.47;2.83;;;28.30;56.40;;;;;;4998329;28;20262;-73
2023/05/23 09:15:18;;;;;;;3.30;2.42;;;28.20;56.30;;;;;;4998700;28;20194;-74
2023/05/23 09:17:45;;;;;;;5.95;2.88;;;28.30;56.20;;;;;;5016279;28;20554;-75
2023/05/23 09:20:14;;;;;;;4.15;2.72;;;28.70;55.30;;;;;;5016153;28;20199;-74
2023/05/23 09:22:48;;;;;;;4.90;2.80;;;29.00;56.30;;;;;;5014702;28;20254;-79
2023/05/23 09:25:15;;;;;;;4.13;2.70;;;28.90;54.90;;;;;;5016116;28;20224;-74
2023/05/23 09:27:43;;;;;;;4.43;2.85;;;28.50;52.70;;;;;;5015845;28;20254;-72
2023/05/23 09:30:14;;;;;;;3.55;2.45;;;28.30;53.30;;;;;;5014526;28;20204;-78
2023/05/23 09:32:41;;;;;;;3.72;2.40;;;28.40;53.60;;;;;;5015912;28;20279;-74
2023/05/23 09:35:12;;;;;;;5.35;2.60;;;28.20;53.70;;;;;;4998160;28;20196;-73
2023/05/23 09:37:47;;;;;;;5.50;2.63;;;28.50;55.00;;;;;;5016516;28;20712;-74
2023/05/23 09:40:15;;;;;;;3.50;2.40;;;28.30;53.90;;;;;;5015935;28;20246;-72
2023/05/23 09:42:47;;;;;;;3.95;2.50;;;28.40;54.40;;;;;;4997806;28;20220;-73
2023/05/23 09:45:15;;;;;;;3.50;2.75;;;28.10;52.80;;;;;;5014153;28;20200;-73
2023/05/23 09:47:50;;;;;;;3.95;2.70;;;28.40;54.30;;;;;;5014016;28;20214;-73
2023/05/23 09:50:19;;;;;;;5.85;2.70;;;28.40;52.60;;;;;;4981076;28;20630;-74
2023/05/23 09:52:46;;;;;;;4.63;2.97;;;28.50;53.00;;;;;;5015400;28;20188;-78
2023/05/23 09:55:14;;;;;;;4.40;2.80;;;28.60;54.30;;;;;;5015597;28;20195;-74
2023/05/23 09:57:43;;;;;;;4.55;2.72;;;28.80;52.60;;;;;;5014029;28;20200;-72
2023/05/23 10:00:12;;;;;;;3.65;2.53;;;29.00;54.10;;;;;;5013606;28;20204;-75
2023/05/23 10:02:45;;;;;;;7.20;2.50;;;29.70;52.40;;;;;;5013526;28;20299;-73
2023/05/23 10:05:23;;;;;;;4.97;2.55;;;29.80;52.10;;;;;;4997263;28;20294;-77
2023/05/23 10:07:50;;;;;;;5.35;2.70;;;29.90;50.60;;;;;;5015421;28;20594;-75
2023/05/23 10:10:21;;;;;;;4.15;2.58;;;30.10;50.30;;;;;;5015677;28;20255;-75
2023/05/23 10:12:52;;;;;;;4.22;2.53;;;30.30;50.00;;;;;;5013895;28;20206;-80
2023/05/23 10:15:23;;;;;;;4.03;2.47;;;30.00;49.30;;;;;;4997560;28;20266;-77
2023/05/23 10:18:04;;;;;;;2.83;2.55;;;29.40;50.50;;;;;;5018534;28;20231;-81
2023/05/23 10:20:33;;;;;;;3.67;2.55;;;28.50;51.40;;;;;;4997196;28;20212;-79
2023/05/23 10:23:03;;;;;;;6.05;2.58;;;28.10;52.50;;;;;;4997429;28;20677;-74
2023/05/23 10:25:31;;;;;;;4.35;2.83;;;27.90;53.30;;;;;;5015040;28;20193;-77
2023/05/23 10:27:58;;;;;;;4.70;2.88;;;28.00;53.50;;;;;;5015164;28;20630;-83
2023/05/23 10:30:29;;;;;;;4.57;2.80;;;28.20;52.60;;;;;;4997018;28;20208;-75
2023/05/23 10:32:58;;;;;;;3.67;2.65;;;28.80;53.00;;;;;;5015005;28;20211;-80
2023/05/23 10:35:42;;;;;;;3.80;3.03;;;28.50;53.70;;;;;;4996934;28;20294;-78
2023/05/23 10:38:21;;;;;;;4.07;2.60;;;28.10;53.00;;;;;;4996327;28;20216;-75
2023/05/23 10:41:00;;;;;;;5.38;2.67;;;28.10;53.10;;;;;;5013031;28;20290;-76
2023/05/23 10:43:38;;;;;;;4.40;2.55;;;28.30;53.90;;;;;;5013601;28;20277;-77
2023/05/23 10:46:11;;;;;;;4.40;2.80;;;28.40;52.80;;;;;;5014652;28;20202;-74
2023/05/23 10:48:43;;;;;;;3.53;2.70;;;28.70;51.50;;;;;;5014265;28;20196;-72
2023/05/23 10:51:14;;;;;;;4.47;2.70;;;29.20;52.00;;;;;;4996573;28;20216;-81
2023/05/23 10:53:43;;;;;;;4.60;2.75;;;29.10;51.40;;;;;;4997138;28;20212;-82
2023/05/23 10:56:22;;;;;;;3.35;2.63;;;29.40;50.90;;;;;;4997014;28;20247;-83
2023/05/23 10:58:59;;;;;;;4.75;2.90;;;29.20;51.60;;;;;;4996868;28;20314;-78
2023/05/23 11:01:26;;;;;;;5.85;3.10;;;29.30;51.20;;;;;;5014283;28;20184;-85
2023/05/23 11:03:53;;;;;;;4.72;2.35;;;29.70;51.50;;;;;;4996388;28;20240;-75
2023/05/23 11:06:47;;;;;;;3.85;2.58;;;30.10;50.20;;;;;;5012660;28;20638;-76
2023/05/23 11:09:18;;;;;;;4.43;2.63;;;30.10;48.90;;;;;;5012579;28;20193;-75
2023/05/23 11:11:51;;;;;;;4.80;2.50;;;30.40;49.50;;;;;;5014422;28;20287;-85
2023/05/23 11:14:38;;;;;;;4.97;2.80;;;30.60;49.10;;;;;;5013062;28;20231;-77
2023/05/23 11:17:11;;;;;;;3.83;2.70;;;30.20;49.00;;;;;;4952887;29;20720;-73
2023/05/23 11:19:39;;;;;;;4.63;2.90;;;30.30;49.80;;;;;;4936410;29;20731;-72
2023/05/23 11:22:12;;;;;;;4.72;2.83;;;30.30;50.00;;;;;;4952705;29;20719;-73
2023/05/23 11:24:51;;;;;;;4.05;2.75;;;30.50;50.00;;;;;;4936696;29;20240;-72
2023/05/23 11:27:28;;;;;;;4.60;2.63;;;30.70;49.30;;;;;;4936668;29;20197;-73
2023/05/23 11:29:59;;;;;;;4.07;2.83;;;30.20;48.20;;;;;;4952636;29;20202;-73
2023/05/23 11:32:29;;;;;;;3.60;2.45;;;30.30;47.90;;;;;;4952732;29;20671;-72
2023/05/23 11:35:04;;;;;;;4.35;2.65;;;30.30;49.90;;;;;;4936645;29;20655;-73
2023/05/23 11:37:32;;;;;;;3.55;2.85;;;30.20;49.20;;;;;;4936561;29;20209;-73
2023/05/23 11:40:19;;;;;;;5.85;3.17;;;30.20;48.20;;;;;;4952696;29;20198;-73
2023/05/23 11:42:46;;;;;;;3.70;3.08;;;30.00;49.20;;;;;;4952706;29;20207;-73
2023/05/23 11:45:13;;;;;;;3.83;2.50;;;30.40;49.80;;;;;;4952769;29;20327;-73
2023/05/23 11:47:40;;;;;;;4.13;2.70;;;30.60;47.70;;;;;;4936553;29;20237;-71
2023/05/23 11:50:08;;;;;;;8.93;2.80;;;31.20;47.60;;;;;;4936468;29;20311;-73
2023/05/23 11:52:35;;;;;;;3.03;2.60;;;31.20;46.90;;;;;;4936375;29;20206;-74
2023/05/23 11:55:02;;;;;;;4.80;2.75;;;31.30;46.20;;;;;;4984696;28;20594;-77
2023/05/23 11:57:30;;;;;;;5.60;2.90;;;31.50;45.30;;;;;;4995786;28;20192;-73
2023/05/23 11:59:57;;;;;;;5.18;2.88;;;31.60;45.80;;;;;;5011666;28;20192;-74
2023/05/23 12:02:27;;;;;;;4.32;3.08;;;31.70;46.20;;;;;;5010918;28;20196;-73
2023/05/23 12:04:54;;;;;;;4.35;2.70;;;32.00;46.30;;;;;;4995300;28;20597;-76
2023/05/23 12:07:21;;;;;;;3.92;2.92;;;32.00;45.20;;;;;;5012302;28;20296;-74
2023/05/23 12:09:48;;;;;;;4.55;2.80;;;32.20;45.90;;;;;;5012793;28;20298;-76
2023/05/23 12:12:16;;;;;;;4.65;3.15;;;32.30;45.30;;;;;;5013553;28;20211;-77
2023/05/23 12:14:46;;;;;;;3.13;2.65;;;32.00;45.30;;;;;;5013134;28;20553;-74
2023/05/23 12:17:13;;;;;;;7.50;3.13;;;32.00;46.50;;;;;;5013165;28;20538;-75
2023/05/23 12:19:45;;;;;;;4.63;3.17;;;32.40;46.60;;;;;;5014498;28;20646;-82
2023/05/23 12:22:12;;;;;;;4.45;2.90;;;32.70;45.10;;;;;;5012986;28;20525;-85
2023/05/23 12:24:48;;;;;;;4.65;2.83;;;32.60;45.00;;;;;;4994901;28;20768;-74
2023/05/23 12:27:17;;;;;;;6.88;2.92;;;32.40;44.80;;;;;;4995005;28;20199;-73
2023/05/23 12:29:52;;;;;;;8.95;3.45;;;31.80;44.60;;;;;;5011483;28;20208;-76
2023/05/23 12:32:23;;;;;;;5.45;3.20;;;31.30;45.70;;;;;;5017214;28;20184;-82
2023/05/23 12:34:51;;;;;;;4.85;3.10;;;31.50;47.30;;;;;;5018168;28;20215;-83
2023/05/23 12:37:18;;;;;;;5.40;3.38;;;31.30;45.90;;;;;;5017989;28;20192;-80
2023/05/23 12:39:46;;;;;;;4.53;3.40;;;30.70;45.90;;;;;;5018474;28;20721;-84
2023/05/23 12:42:13;;;;;;;6.25;3.00;;;30.50;46.80;;;;;;4999347;28;20642;-81
2023/05/23 12:44:42;;;;;;;5.85;3.30;;;30.60;47.10;;;;;;5015539;28;20220;-82
2023/05/23 12:47:09;;;;;;;4.35;3.40;;;29.70;47.30;;;;;;4967053;28;20712;-80
2023/05/23 12:49:37;;;;;;;5.93;3.15;;;29.50;47.80;;;;;;4999240;28;20299;-80
2023/05/23 12:52:04;;;;;;;6.20;3.20;;;30.20;48.80;;;;;;5017138;28;20203;-84